createdAt,value
2022-09-16T00:00:52.339Z,10.34
2022-09-16T00:03:38.691Z,10.34
2022-09-16T00:06:06.805Z,10.26
2022-09-16T00:08:34.205Z,9.98
2022-09-16T00:11:02.995Z,10.13
2022-09-16T00:13:30.306Z,9.93
2022-09-16T00:15:57.752Z,10.00
2022-09-16T00:18:25.243Z,10.02
2022-09-16T00:20:54.916Z,9.87
2022-09-16T00:23:22.312Z,9.65
2022-09-16T00:25:53.951Z,9.77
2022-09-16T00:28:22.927Z,9.58
2022-09-16T00:30:50.345Z,9.95
2022-09-16T00:33:18.540Z,9.74
2022-09-16T00:35:46.809Z,9.78
2022-09-16T00:38:14.401Z,9.84
2022-09-16T00:40:47.063Z,9.85
2022-09-16T00:43:19.420Z,9.85
2022-09-16T00:45:57.110Z,10.10
2022-09-16T00:48:27.539Z,9.92
2022-09-16T00:51:00.646Z,10.02
2022-09-16T00:53:42.847Z,10.07
2022-09-16T00:56:13.183Z,9.83
2022-09-16T00:58:47.429Z,9.93
2022-09-16T01:01:15.281Z,10.00
2022-09-16T01:03:48.970Z,9.85
2022-09-16T01:06:19.556Z,9.92
2022-09-16T01:08:50.383Z,9.95
2022-09-16T01:11:18.186Z,9.92
2022-09-16T01:13:47.343Z,9.92
2022-09-16T01:16:28.966Z,9.97
2022-09-16T01:19:31.297Z,9.79
2022-09-16T01:22:19.185Z,9.97
2022-09-16T01:24:59.041Z,9.97
2022-09-16T01:27:53.545Z,10.02
2022-09-16T01:30:34.455Z,9.99
2022-09-16T01:33:06.731Z,9.91
2022-09-16T01:35:52.836Z,9.92
2022-09-16T01:38:29.056Z,9.97
2022-09-16T01:41:14.579Z,9.96
2022-09-16T01:44:10.938Z,9.78
2022-09-16T01:46:46.459Z,9.74
2022-09-16T01:49:22.740Z,9.84
2022-09-16T01:52:02.392Z,9.86
2022-09-16T01:54:42.845Z,9.82
2022-09-16T01:57:22.756Z,9.84
2022-09-16T02:00:06.738Z,9.75
2022-09-16T02:03:01.611Z,9.69
2022-09-16T02:05:37.656Z,9.66
2022-09-16T02:08:46.067Z,9.53
2022-09-16T02:11:16.801Z,9.35
2022-09-16T02:13:50.394Z,9.39
2022-09-16T02:16:29.542Z,9.53
2022-09-16T02:19:02.697Z,9.49
2022-09-16T02:21:34.326Z,9.61
2022-09-16T02:24:03.827Z,9.53
2022-09-16T02:26:39.598Z,9.63
2022-09-16T02:29:23.439Z,9.74
2022-09-16T02:31:57.061Z,9.74
2022-09-16T02:34:31.351Z,9.62
2022-09-16T02:37:04.739Z,9.67
2022-09-16T02:39:37.785Z,9.48
2022-09-16T02:42:05.714Z,9.66
2022-09-16T02:44:34.446Z,9.70
2022-09-16T02:47:28.090Z,9.72
2022-09-16T02:49:57.978Z,9.50
2022-09-16T02:52:54.348Z,9.32
2022-09-16T02:55:33.244Z,9.54
2022-09-16T02:58:00.839Z,9.50
2022-09-16T03:00:32.284Z,9.51
2022-09-16T03:02:59.566Z,9.48
2022-09-16T03:05:30.182Z,9.54
2022-09-16T03:07:58.558Z,9.56
2022-09-16T03:10:29.692Z,9.44
2022-09-16T03:13:09.679Z,9.52
2022-09-16T03:15:43.542Z,9.50
2022-09-16T03:18:23.119Z,9.55
2022-09-16T03:21:57.904Z,9.60
2022-09-16T03:24:45.706Z,9.52
2022-09-16T03:27:42.880Z,9.47
2022-09-16T03:30:11.472Z,9.29
2022-09-16T03:32:59.705Z,9.27
2022-09-16T03:35:32.225Z,9.34
2022-09-16T03:38:02.464Z,9.41
2022-09-16T03:40:32.681Z,9.42
2022-09-16T03:43:00.111Z,9.28
2022-09-16T03:45:27.319Z,9.29
2022-09-16T03:47:54.538Z,9.26
2022-09-16T03:50:22.098Z,9.41
2022-09-16T03:52:49.674Z,9.35
2022-09-16T03:55:17.181Z,9.40
2022-09-16T03:57:44.746Z,9.33
2022-09-16T04:00:12.523Z,9.21
2022-09-16T04:02:39.732Z,9.23
2022-09-16T04:05:08.355Z,9.33
2022-09-16T04:07:36.181Z,9.44
2022-09-16T04:10:04.918Z,9.46
2022-09-16T04:12:32.475Z,9.48
2022-09-16T04:15:00.968Z,9.48
2022-09-16T04:17:32.071Z,9.32
2022-09-16T04:19:59.540Z,9.34
2022-09-16T04:22:31.073Z,9.44
2022-09-16T04:24:58.497Z,9.57
2022-09-16T04:27:26.005Z,9.77
2022-09-16T04:29:53.289Z,9.95
2022-09-16T04:32:20.445Z,9.86
2022-09-16T04:34:47.880Z,9.98
2022-09-16T04:37:15.022Z,10.11
2022-09-16T04:39:42.139Z,9.98
2022-09-16T04:42:12.367Z,10.20
2022-09-16T04:44:39.961Z,10.19
2022-09-16T04:47:07.128Z,10.20
2022-09-16T04:49:34.517Z,9.95
2022-09-16T04:52:01.930Z,10.14
2022-09-16T04:54:29.137Z,10.16
2022-09-16T04:56:57.774Z,10.05
2022-09-16T04:59:24.902Z,10.02
2022-09-16T05:01:52.360Z,10.00
2022-09-16T05:04:19.835Z,10.00
2022-09-16T05:06:47.002Z,10.07
2022-09-16T05:09:14.199Z,10.08
2022-09-16T05:11:42.308Z,10.17
2022-09-16T05:14:18.800Z,10.25
2022-09-16T05:16:47.101Z,10.16
2022-09-16T05:19:15.181Z,10.03
2022-09-16T05:21:42.877Z,9.98
2022-09-16T05:24:12.724Z,9.93
2022-09-16T05:26:42.188Z,9.87
2022-09-16T05:29:15.865Z,9.95
2022-09-16T05:31:46.131Z,9.89
2022-09-16T05:34:19.062Z,9.87
2022-09-16T05:36:47.950Z,9.94
2022-09-16T05:39:25.983Z,10.03
2022-09-16T05:41:59.424Z,10.10
2022-09-16T05:44:28.195Z,10.63
2022-09-16T05:46:55.902Z,11.50
2022-09-16T05:49:23.885Z,13.62
2022-09-16T05:51:52.091Z,14.70
2022-09-16T05:54:20.456Z,16.01
2022-09-16T05:56:48.312Z,16.95
2022-09-16T05:59:17.003Z,18.27
2022-09-16T06:01:45.317Z,19.26
2022-09-16T06:04:14.614Z,21.20
2022-09-16T06:06:43.739Z,21.72
2022-09-16T06:09:18.245Z,23.00
2022-09-16T06:11:49.258Z,23.78
2022-09-16T06:14:18.304Z,22.34
2022-09-16T06:16:46.252Z,20.15
2022-09-16T06:19:17.238Z,19.99
2022-09-16T06:21:46.792Z,21.87
2022-09-16T06:24:16.060Z,21.66
2022-09-16T06:26:45.124Z,22.70
2022-09-16T06:29:13.720Z,23.88
2022-09-16T06:31:41.434Z,23.71
2022-09-16T06:34:14.588Z,19.54
2022-09-16T06:36:45.012Z,16.95
2022-09-16T06:39:14.997Z,16.70
2022-09-16T06:41:43.255Z,17.82
2022-09-16T06:44:10.600Z,16.23
2022-09-16T06:46:37.934Z,15.57
2022-09-16T06:49:06.420Z,14.83
2022-09-16T06:51:35.007Z,14.28
2022-09-16T06:54:05.093Z,16.28
2022-09-16T06:56:34.191Z,15.50
2022-09-16T06:59:01.368Z,15.70
2022-09-16T07:01:30.689Z,15.16
2022-09-16T07:04:01.583Z,14.03
2022-09-16T07:06:51.051Z,13.48
2022-09-16T07:09:17.935Z,13.15
2022-09-16T07:11:45.416Z,14.19
2022-09-16T07:14:12.566Z,18.04
2022-09-16T07:16:39.992Z,21.42
2022-09-16T07:19:07.204Z,19.46
2022-09-16T07:21:34.401Z,18.09
2022-09-16T07:24:02.928Z,20.54
2022-09-16T07:26:35.449Z,20.44
2022-09-16T07:29:05.730Z,20.50
2022-09-16T07:31:35.324Z,17.95
2022-09-16T07:34:05.062Z,16.86
2022-09-16T07:36:41.170Z,15.76
2022-09-16T07:39:09.383Z,15.66
2022-09-16T07:41:45.888Z,15.55
2022-09-16T07:44:15.607Z,15.69
2022-09-16T07:46:43.593Z,15.43
2022-09-16T07:49:14.007Z,14.99
2022-09-16T07:51:41.569Z,14.34
2022-09-16T07:54:12.696Z,14.71
2022-09-16T07:56:41.554Z,14.72
2022-09-16T07:59:15.932Z,14.30
2022-09-16T08:01:48.576Z,13.82
2022-09-16T08:04:17.115Z,13.56
2022-09-16T08:06:44.545Z,13.62
2022-09-16T08:12:01.662Z,13.58
2022-09-16T08:14:29.094Z,13.88
2022-09-16T08:16:56.508Z,13.96
2022-09-16T08:19:23.726Z,13.82
2022-09-16T08:21:51.551Z,13.30
2022-09-16T08:24:18.801Z,13.23
2022-09-16T08:26:45.984Z,13.61
2022-09-16T08:29:13.755Z,13.57
2022-09-16T08:31:41.208Z,13.53
2022-09-16T08:34:08.450Z,13.67
2022-09-16T08:36:35.856Z,13.78
2022-09-16T08:39:03.355Z,13.84
2022-09-16T08:42:07.972Z,14.02
2022-09-16T08:45:09.339Z,14.10
2022-09-16T08:48:01.356Z,14.12
2022-09-16T08:50:33.571Z,13.97
2022-09-16T08:53:05.143Z,14.00
2022-09-16T08:55:41.009Z,13.62
2022-09-16T08:58:19.820Z,14.31
2022-09-16T09:01:03.023Z,14.55
2022-09-16T09:03:46.147Z,14.68
2022-09-16T09:06:24.219Z,14.97
2022-09-16T09:09:13.897Z,14.98
2022-09-16T09:12:15.715Z,15.14
2022-09-16T09:15:02.036Z,15.42
2022-09-16T09:17:49.921Z,15.46
2022-09-16T09:20:38.853Z,14.95
2022-09-16T09:23:32.458Z,14.90
2022-09-16T09:26:13.855Z,15.05
2022-09-16T09:29:15.087Z,15.46
2022-09-16T09:32:01.273Z,15.60
2022-09-16T09:34:45.805Z,15.57
2022-09-16T09:37:31.977Z,16.00
2022-09-16T09:40:21.918Z,17.88
2022-09-16T09:42:59.608Z,18.45
2022-09-16T09:45:33.536Z,18.61
2022-09-16T09:48:13.359Z,18.41
2022-09-16T09:50:44.379Z,17.49
2022-09-16T09:53:11.538Z,17.97
2022-09-16T09:55:41.008Z,17.35
2022-09-16T09:58:12.396Z,16.59
2022-09-16T10:00:39.673Z,15.81
2022-09-16T10:03:11.724Z,15.76
2022-09-16T10:05:39.363Z,16.24
2022-09-16T10:08:14.446Z,16.45
2022-09-16T10:10:50.680Z,16.18
2022-09-16T10:13:19.595Z,15.79
2022-09-16T10:15:51.937Z,15.59
2022-09-16T10:18:30.049Z,17.41
2022-09-16T10:21:04.415Z,18.93
2022-09-16T10:23:32.612Z,20.60
2022-09-16T10:26:20.368Z,20.47
2022-09-16T10:29:15.583Z,21.05
2022-09-16T10:31:43.690Z,20.12
2022-09-16T10:34:32.038Z,19.81
2022-09-16T10:37:14.662Z,18.60
2022-09-16T10:39:46.509Z,18.50
2022-09-16T10:42:46.773Z,19.39
2022-09-16T10:45:36.076Z,19.49
2022-09-16T10:48:15.487Z,18.64
2022-09-16T10:51:05.471Z,17.83
2022-09-16T10:53:43.955Z,18.76
2022-09-16T10:56:24.275Z,17.91
2022-09-16T10:59:12.936Z,16.59
2022-09-16T11:02:28.129Z,16.22
2022-09-16T11:05:12.706Z,16.41
2022-09-16T11:07:58.098Z,16.38
2022-09-16T11:10:33.171Z,16.76
2022-09-16T11:13:18.889Z,16.66
2022-09-16T11:16:00.406Z,16.92
2022-09-16T11:18:50.756Z,16.99
2022-09-16T11:21:26.336Z,17.00
2022-09-16T11:24:30.546Z,16.72
2022-09-16T11:27:28.537Z,16.27
2022-09-16T11:30:17.397Z,15.67
2022-09-16T11:36:23.906Z,15.43
2022-09-16T11:39:05.731Z,15.24
2022-09-16T11:41:42.436Z,15.71
2022-09-16T11:44:38.964Z,15.92
2022-09-16T11:47:27.456Z,16.13
2022-09-16T11:50:08.317Z,16.08
2022-09-16T11:52:44.768Z,16.42
2022-09-16T11:55:46.832Z,15.94
2022-09-16T11:58:38.350Z,16.12
2022-09-16T12:01:31.953Z,15.82
2022-09-16T12:04:06.825Z,15.95
2022-09-16T12:06:58.957Z,16.05
2022-09-16T12:09:31.637Z,16.10
2022-09-16T12:12:12.597Z,16.11
2022-09-16T12:14:49.925Z,16.23
2022-09-16T12:17:22.448Z,16.34
2022-09-16T12:20:00.186Z,16.18
2022-09-16T12:22:43.729Z,15.92
2022-09-16T12:25:29.254Z,16.13
2022-09-16T12:28:03.365Z,15.76
2022-09-16T12:30:37.532Z,15.63
2022-09-16T12:33:28.828Z,15.96
2022-09-16T12:36:04.129Z,16.04
2022-09-16T12:38:31.684Z,16.25
2022-09-16T12:41:29.371Z,16.39
2022-09-16T12:44:33.999Z,16.82
2022-09-16T12:47:23.498Z,16.46
2022-09-16T12:50:06.306Z,16.34
2022-09-16T12:53:10.176Z,16.06
2022-09-16T12:55:46.865Z,16.24
2022-09-16T12:58:33.128Z,16.00
2022-09-16T13:01:09.842Z,15.93
2022-09-16T13:03:45.263Z,15.82
2022-09-16T13:06:34.494Z,16.12
2022-09-16T13:09:25.580Z,16.14
2022-09-16T13:14:54.566Z,16.42
2022-09-16T13:17:33.957Z,16.37
2022-09-16T13:20:20.214Z,16.43
2022-09-16T13:22:51.817Z,16.44
2022-09-16T13:25:58.290Z,16.71
2022-09-16T13:28:36.423Z,16.49
2022-09-16T13:31:12.823Z,16.03
2022-09-16T13:33:45.350Z,16.16
2022-09-16T13:36:21.512Z,16.14
2022-09-16T13:38:52.065Z,15.87
2022-09-16T13:41:34.712Z,15.89
2022-09-16T13:44:21.823Z,15.63
2022-09-16T13:46:49.343Z,15.49
2022-09-16T13:49:26.019Z,15.25
2022-09-16T13:51:53.885Z,15.15
2022-09-16T13:54:25.372Z,15.34
2022-09-16T13:57:25.912Z,15.29
2022-09-16T14:00:13.430Z,15.35
2022-09-16T14:03:15.881Z,15.40
2022-09-16T14:06:20.655Z,15.01
2022-09-16T14:08:53.605Z,15.01
2022-09-16T14:11:31.840Z,15.10
2022-09-16T14:14:29.918Z,15.13
2022-09-16T14:17:05.585Z,15.24
2022-09-16T14:19:37.898Z,15.14
2022-09-16T14:22:14.616Z,15.14
2022-09-16T14:24:43.259Z,15.42
2022-09-16T14:27:23.306Z,15.40
2022-09-16T14:29:58.972Z,15.36
2022-09-16T14:32:30.406Z,15.30
2022-09-16T14:35:01.929Z,15.36
2022-09-16T14:37:30.644Z,15.30
2022-09-16T14:40:11.647Z,15.37
2022-09-16T14:42:48.387Z,14.90
2022-09-16T14:45:17.521Z,14.88
2022-09-16T14:47:53.387Z,14.90
2022-09-16T14:50:28.611Z,14.89
2022-09-16T14:53:05.738Z,14.63
2022-09-16T14:55:37.681Z,14.65
2022-09-16T14:58:05.248Z,14.52
2022-09-16T15:00:50.732Z,14.49
2022-09-16T15:03:42.400Z,14.55
2022-09-16T15:06:16.363Z,14.33
2022-09-16T15:08:47.330Z,14.35
2022-09-16T15:11:43.579Z,14.39
2022-09-16T15:14:09.443Z,14.32
2022-09-16T15:16:44.232Z,14.19
2022-09-16T15:19:25.445Z,14.02
2022-09-16T15:21:53.400Z,13.80
2022-09-16T15:24:25.029Z,13.64
2022-09-16T15:26:53.898Z,13.59
2022-09-16T15:29:24.242Z,13.59
2022-09-16T15:31:52.611Z,13.54
2022-09-16T15:34:22.692Z,13.46
2022-09-16T15:36:59.448Z,13.33
2022-09-16T15:39:33.085Z,13.28
2022-09-16T15:42:24.150Z,13.33
2022-09-16T15:45:03.334Z,13.21
2022-09-16T15:47:34.759Z,13.23
2022-09-16T15:50:10.007Z,13.29
2022-09-16T15:53:00.150Z,13.18
2022-09-16T15:55:44.144Z,13.08
2022-09-16T15:58:33.026Z,13.10
2022-09-16T16:01:18.251Z,13.06
2022-09-16T16:03:45.631Z,13.00
2022-09-16T16:06:13.391Z,12.85
2022-09-16T16:08:53.082Z,12.82
2022-09-16T16:11:23.532Z,12.81
2022-09-16T16:13:51.270Z,12.79
2022-09-16T16:16:19.440Z,12.65
2022-09-16T16:18:47.041Z,12.58
2022-09-16T16:21:16.461Z,12.63
2022-09-16T16:23:43.768Z,12.65
2022-09-16T16:26:11.903Z,12.47
2022-09-16T16:28:39.120Z,12.63
2022-09-16T16:31:14.290Z,12.39
2022-09-16T16:33:44.680Z,12.43
2022-09-16T16:36:14.430Z,12.43
2022-09-16T16:38:41.931Z,12.47
2022-09-16T16:41:10.766Z,12.46
2022-09-16T16:43:38.729Z,12.38
2022-09-16T16:46:06.038Z,12.27
2022-09-16T16:48:34.313Z,12.09
2022-09-16T16:51:10.329Z,12.21
2022-09-16T16:53:38.733Z,12.29
2022-09-16T16:56:14.466Z,12.23
2022-09-16T16:58:45.263Z,12.27
2022-09-16T17:01:16.296Z,12.20
2022-09-16T17:03:46.437Z,12.25
2022-09-16T17:06:13.969Z,12.26
2022-09-16T17:08:41.465Z,12.22
2022-09-16T17:11:14.659Z,12.11
2022-09-16T17:13:45.917Z,12.12
2022-09-16T17:16:16.884Z,12.20
2022-09-16T17:18:44.924Z,12.21
2022-09-16T17:21:24.175Z,12.24
2022-09-16T17:23:52.597Z,12.29
2022-09-16T17:26:21.247Z,12.24
2022-09-16T17:28:50.936Z,12.22
2022-09-16T17:31:26.692Z,12.12
2022-09-16T17:34:05.625Z,12.14
2022-09-16T17:36:35.375Z,12.10
2022-09-16T17:39:05.659Z,12.08
2022-09-16T17:41:33.261Z,12.08
2022-09-16T17:44:05.668Z,12.02
2022-09-16T17:46:33.660Z,12.02
2022-09-16T17:49:04.193Z,11.99
2022-09-16T17:51:32.444Z,12.09
2022-09-16T17:54:00.194Z,12.04
2022-09-16T17:56:27.632Z,12.15
2022-09-16T17:58:55.202Z,12.05
2022-09-16T18:01:24.777Z,12.04
2022-09-16T18:03:54.628Z,11.98
2022-09-16T18:06:24.905Z,11.84
2022-09-16T18:08:52.554Z,11.86
2022-09-16T18:11:21.378Z,11.89
2022-09-16T18:13:49.125Z,11.93
2022-09-16T18:16:19.595Z,11.89
2022-09-16T18:18:51.340Z,11.88
2022-09-16T18:21:19.917Z,11.61
2022-09-16T18:23:50.909Z,11.70
2022-09-16T18:26:19.053Z,11.71
2022-09-16T18:29:08.732Z,11.66
2022-09-16T18:31:35.724Z,11.71
2022-09-16T18:34:02.968Z,11.68
2022-09-16T18:36:31.043Z,11.46
2022-09-16T18:38:59.177Z,11.51
2022-09-16T18:41:37.615Z,11.52
2022-09-16T18:44:14.654Z,11.53
2022-09-16T18:46:42.338Z,11.40
2022-09-16T18:49:12.984Z,11.42
2022-09-16T18:51:51.165Z,11.46
2022-09-16T18:54:28.186Z,11.49
2022-09-16T18:56:57.543Z,11.31
2022-09-16T18:59:28.565Z,11.21
2022-09-16T19:01:58.696Z,11.35
2022-09-16T19:04:29.008Z,11.38
2022-09-16T19:07:06.059Z,11.29
2022-09-16T19:09:41.282Z,11.24
2022-09-16T19:12:13.259Z,11.25
2022-09-16T19:14:41.103Z,11.21
2022-09-16T19:17:09.296Z,11.10
2022-09-16T19:19:36.831Z,11.11
2022-09-16T19:22:06.239Z,11.10
2022-09-16T19:24:34.708Z,11.08
2022-09-16T19:27:02.120Z,11.10
2022-09-16T19:29:29.786Z,11.12
2022-09-16T19:31:58.400Z,11.12
2022-09-16T19:34:25.696Z,10.97
2022-09-16T19:36:56.101Z,11.03
2022-09-16T19:39:24.083Z,10.99
2022-09-16T19:41:51.262Z,10.99
2022-09-16T19:44:19.059Z,10.98
2022-09-16T19:46:49.303Z,10.87
2022-09-16T19:49:20.088Z,11.01
2022-09-16T19:51:49.270Z,10.96
2022-09-16T19:54:17.250Z,10.80
2022-09-16T19:56:50.186Z,10.76
2022-09-16T19:59:18.936Z,10.75
2022-09-16T20:01:47.683Z,10.71
2022-09-16T20:04:19.721Z,10.57
2022-09-16T20:06:47.495Z,10.58
2022-09-16T20:09:14.695Z,10.72
2022-09-16T20:11:44.751Z,10.69
2022-09-16T20:14:18.943Z,10.79
2022-09-16T20:16:47.488Z,10.80
2022-09-16T20:19:16.876Z,10.82
2022-09-16T20:21:44.464Z,10.84
2022-09-16T20:24:18.340Z,10.79
2022-09-16T20:26:48.261Z,10.80
2022-09-16T20:29:17.400Z,10.70
2022-09-16T20:31:45.464Z,10.78
2022-09-16T20:34:14.889Z,10.72
2022-09-16T20:36:44.376Z,10.73
2022-09-16T20:39:12.651Z,10.70
2022-09-16T20:41:41.118Z,10.58
2022-09-16T20:44:13.444Z,10.52
2022-09-16T20:46:40.622Z,10.45
2022-09-16T20:49:12.607Z,10.39
2022-09-16T20:51:39.986Z,10.44
2022-09-16T20:54:10.355Z,10.36
2022-09-16T20:56:40.647Z,10.41
2022-09-16T20:59:10.062Z,10.41
2022-09-16T21:01:39.166Z,10.42
2022-09-16T21:04:11.294Z,10.44
2022-09-16T21:06:38.597Z,10.39
2022-09-16T21:09:09.581Z,10.18
2022-09-16T21:11:38.718Z,10.23
2022-09-16T21:14:06.986Z,10.23
2022-09-16T21:16:36.171Z,10.05
2022-09-16T21:19:05.883Z,10.13
2022-09-16T21:21:33.335Z,10.16
2022-09-16T21:24:03.246Z,10.16
2022-09-16T21:26:32.621Z,10.03
2022-09-16T21:29:02.627Z,10.02
2022-09-16T21:31:34.761Z,10.00
2022-09-16T21:34:03.239Z,10.03
2022-09-16T21:36:31.319Z,10.15
2022-09-16T21:38:59.262Z,10.13
2022-09-16T21:41:27.641Z,10.21
2022-09-16T21:43:56.636Z,10.02
2022-09-16T21:46:29.593Z,9.98
2022-09-16T21:49:02.174Z,10.07
2022-09-16T21:51:35.275Z,10.06
2022-09-16T21:54:05.850Z,9.88
2022-09-16T21:56:33.324Z,10.03
2022-09-16T21:59:00.898Z,10.03
2022-09-16T22:01:30.455Z,10.09
2022-09-16T22:04:00.359Z,10.11
2022-09-16T22:06:28.164Z,10.08
2022-09-16T22:08:57.616Z,10.20
2022-09-16T22:11:27.271Z,10.09
2022-09-16T22:13:56.216Z,9.97
2022-09-16T22:16:29.008Z,10.11
2022-09-16T22:19:02.119Z,10.13
2022-09-16T22:21:31.907Z,10.00
2022-09-16T22:24:00.435Z,9.95
2022-09-16T22:26:28.925Z,9.97
2022-09-16T22:28:56.975Z,9.91
2022-09-16T22:31:29.756Z,9.99
2022-09-16T22:34:00.355Z,10.04
2022-09-16T22:36:29.931Z,10.00
2022-09-16T22:39:04.791Z,10.00
2022-09-16T22:41:33.533Z,10.06
2022-09-16T22:44:00.925Z,10.16
2022-09-16T22:46:34.561Z,10.28
2022-09-16T22:49:02.089Z,10.25
2022-09-16T22:51:31.100Z,10.30
2022-09-16T22:53:58.444Z,10.22
2022-09-16T22:56:31.938Z,10.28
2022-09-16T22:59:05.605Z,10.25
2022-09-16T23:01:39.604Z,10.05
2022-09-16T23:04:09.105Z,10.24
2022-09-16T23:06:38.521Z,10.33
2022-09-16T23:09:08.077Z,10.25
2022-09-16T23:11:35.980Z,10.28
2022-09-16T23:14:05.321Z,10.26
2022-09-16T23:16:35.801Z,10.02
2022-09-16T23:19:07.759Z,9.89
2022-09-16T23:21:36.483Z,9.83
2022-09-16T23:24:04.859Z,9.91
2022-09-16T23:26:37.442Z,9.96
2022-09-16T23:29:07.329Z,9.74
2022-09-16T23:31:40.421Z,9.67
2022-09-16T23:34:12.853Z,9.69
2022-09-16T23:36:42.434Z,9.78
2022-09-16T23:39:13.379Z,9.71
2022-09-16T23:41:42.436Z,9.66
2022-09-16T23:44:13.495Z,9.60
2022-09-16T23:46:41.037Z,9.63
2022-09-16T23:49:09.889Z,9.74
2022-09-16T23:51:37.756Z,9.86
2022-09-16T23:54:05.397Z,9.73
2022-09-16T23:56:32.853Z,9.74
2022-09-16T23:59:00.924Z,9.84
